sensor_id;sensor_type;location;lat;lon;timestamp;temperature;humidity
3198;DHT22;1611;49.394;11.136;2023-04-03T00:00:08;5.20;44.00
3198;DHT22;1611;49.394;11.136;2023-04-03T00:02:36;5.10;44.10
3198;DHT22;1611;49.394;11.136;2023-04-03T00:05:03;5.20;44.70
3198;DHT22;1611;49.394;11.136;2023-04-03T00:07:30;5.10;44.20
3198;DHT22;1611;49.394;11.136;2023-04-03T00:09:58;5.10;43.60
3198;DHT22;1611;49.394;11.136;2023-04-03T00:12:25;5.00;43.40
3198;DHT22;1611;49.394;11.136;2023-04-03T00:14:51;5.10;43.40
3198;DHT22;1611;49.394;11.136;2023-04-03T00:17:18;5.10;44.20
3198;DHT22;1611;49.394;11.136;2023-04-03T00:19:45;5.10;43.20
3198;DHT22;1611;49.394;11.136;2023-04-03T00:22:12;5.10;44.00
3198;DHT22;1611;49.394;11.136;2023-04-03T00:24:38;5.10;44.80
3198;DHT22;1611;49.394;11.136;2023-04-03T00:27:06;5.00;44.40
3198;DHT22;1611;49.394;11.136;2023-04-03T00:29:33;5.00;44.10
3198;DHT22;1611;49.394;11.136;2023-04-03T00:32:00;5.00;44.50
3198;DHT22;1611;49.394;11.136;2023-04-03T00:34:27;5.10;44.30
3198;DHT22;1611;49.394;11.136;2023-04-03T00:36:53;5.00;43.70
3198;DHT22;1611;49.394;11.136;2023-04-03T00:39:20;5.00;44.20
3198;DHT22;1611;49.394;11.136;2023-04-03T00:41:47;4.90;44.60
3198;DHT22;1611;49.394;11.136;2023-04-03T00:47:24;4.90;45.30
3198;DHT22;1611;49.394;11.136;2023-04-03T00:49:52;4.80;44.90
3198;DHT22;1611;49.394;11.136;2023-04-03T00:52:22;4.90;45.80
3198;DHT22;1611;49.394;11.136;2023-04-03T00:54:52;4.90;45.60
3198;DHT22;1611;49.394;11.136;2023-04-03T00:57:21;4.90;45.80
3198;DHT22;1611;49.394;11.136;2023-04-03T00:59:50;4.80;45.40
3198;DHT22;1611;49.394;11.136;2023-04-03T01:02:19;4.90;45.30
3198;DHT22;1611;49.394;11.136;2023-04-03T01:04:47;4.80;45.60
3198;DHT22;1611;49.394;11.136;2023-04-03T01:07:17;4.70;45.00
3198;DHT22;1611;49.394;11.136;2023-04-03T01:09:45;4.70;44.70
3198;DHT22;1611;49.394;11.136;2023-04-03T01:12:14;4.70;44.80
3198;DHT22;1611;49.394;11.136;2023-04-03T01:14:42;4.50;44.90
3198;DHT22;1611;49.394;11.136;2023-04-03T01:17:29;4.50;45.10
3198;DHT22;1611;49.394;11.136;2023-04-03T01:20:26;4.40;45.40
3198;DHT22;1611;49.394;11.136;2023-04-03T01:23:06;4.50;45.70
3198;DHT22;1611;49.394;11.136;2023-04-03T01:25:38;4.40;46.00
3198;DHT22;1611;49.394;11.136;2023-04-03T01:28:06;4.40;46.10
3198;DHT22;1611;49.394;11.136;2023-04-03T01:30:36;4.40;46.00
3198;DHT22;1611;49.394;11.136;2023-04-03T01:33:06;4.50;45.90
3198;DHT22;1611;49.394;11.136;2023-04-03T01:35:33;4.50;46.00
3198;DHT22;1611;49.394;11.136;2023-04-03T01:38:00;4.40;46.10
3198;DHT22;1611;49.394;11.136;2023-04-03T01:40:27;4.40;47.60
3198;DHT22;1611;49.394;11.136;2023-04-03T01:42:54;4.40;46.90
3198;DHT22;1611;49.394;11.136;2023-04-03T01:45:20;4.30;45.90
3198;DHT22;1611;49.394;11.136;2023-04-03T01:47:47;4.30;46.50
3198;DHT22;1611;49.394;11.136;2023-04-03T01:50:15;4.20;45.20
3198;DHT22;1611;49.394;11.136;2023-04-03T01:52:42;4.10;46.00
3198;DHT22;1611;49.394;11.136;2023-04-03T01:55:09;4.10;46.30
3198;DHT22;1611;49.394;11.136;2023-04-03T01:57:36;4.10;46.20
3198;DHT22;1611;49.394;11.136;2023-04-03T02:00:03;4.10;46.20
3198;DHT22;1611;49.394;11.136;2023-04-03T02:02:30;4.10;46.40
3198;DHT22;1611;49.394;11.136;2023-04-03T02:04:57;4.00;46.30
3198;DHT22;1611;49.394;11.136;2023-04-03T02:07:25;4.00;46.80
3198;DHT22;1611;49.394;11.136;2023-04-03T02:09:52;3.90;47.20
3198;DHT22;1611;49.394;11.136;2023-04-03T02:12:19;4.00;48.50
3198;DHT22;1611;49.394;11.136;2023-04-03T02:14:46;4.00;47.90
3198;DHT22;1611;49.394;11.136;2023-04-03T02:17:13;4.00;47.60
3198;DHT22;1611;49.394;11.136;2023-04-03T02:19:40;4.00;47.60
3198;DHT22;1611;49.394;11.136;2023-04-03T02:22:07;4.00;47.20
3198;DHT22;1611;49.394;11.136;2023-04-03T02:24:35;4.00;47.10
3198;DHT22;1611;49.394;11.136;2023-04-03T02:27:04;4.00;46.50
3198;DHT22;1611;49.394;11.136;2023-04-03T02:29:31;4.00;46.90
3198;DHT22;1611;49.394;11.136;2023-04-03T02:31:58;3.90;46.70
3198;DHT22;1611;49.394;11.136;2023-04-03T02:34:24;3.90;46.70
3198;DHT22;1611;49.394;11.136;2023-04-03T02:36:51;3.80;47.00
3198;DHT22;1611;49.394;11.136;2023-04-03T02:39:18;3.80;47.00
3198;DHT22;1611;49.394;11.136;2023-04-03T02:41:46;3.70;47.30
3198;DHT22;1611;49.394;11.136;2023-04-03T02:44:13;3.70;47.40
3198;DHT22;1611;49.394;11.136;2023-04-03T02:46:40;3.70;47.40
3198;DHT22;1611;49.394;11.136;2023-04-03T02:49:07;3.80;47.60
3198;DHT22;1611;49.394;11.136;2023-04-03T02:51:34;3.80;47.80
3198;DHT22;1611;49.394;11.136;2023-04-03T02:54:00;3.70;47.60
3198;DHT22;1611;49.394;11.136;2023-04-03T02:56:27;3.70;48.00
3198;DHT22;1611;49.394;11.136;2023-04-03T02:58:55;3.70;47.90
3198;DHT22;1611;49.394;11.136;2023-04-03T03:01:22;3.80;48.20
3198;DHT22;1611;49.394;11.136;2023-04-03T03:03:49;3.80;48.30
3198;DHT22;1611;49.394;11.136;2023-04-03T03:06:16;3.80;49.00
3198;DHT22;1611;49.394;11.136;2023-04-03T03:08:43;3.80;48.60
3198;DHT22;1611;49.394;11.136;2023-04-03T03:11:10;3.90;48.70
3198;DHT22;1611;49.394;11.136;2023-04-03T03:13:37;3.80;48.70
3198;DHT22;1611;49.394;11.136;2023-04-03T03:16:06;3.70;48.90
3198;DHT22;1611;49.394;11.136;2023-04-03T03:18:33;3.70;49.20
3198;DHT22;1611;49.394;11.136;2023-04-03T03:21:02;3.70;49.30
3198;DHT22;1611;49.394;11.136;2023-04-03T03:23:30;3.70;48.90
3198;DHT22;1611;49.394;11.136;2023-04-03T03:25:59;3.70;49.60
3198;DHT22;1611;49.394;11.136;2023-04-03T03:28:27;3.70;50.50
3198;DHT22;1611;49.394;11.136;2023-04-03T03:30:54;3.70;50.00
3198;DHT22;1611;49.394;11.136;2023-04-03T03:33:22;3.70;50.10
3198;DHT22;1611;49.394;11.136;2023-04-03T03:35:49;3.70;51.20
3198;DHT22;1611;49.394;11.136;2023-04-03T03:38:16;3.70;51.50
3198;DHT22;1611;49.394;11.136;2023-04-03T03:40:43;3.70;51.80
3198;DHT22;1611;49.394;11.136;2023-04-03T03:43:10;3.70;50.90
3198;DHT22;1611;49.394;11.136;2023-04-03T03:45:36;3.60;51.20
3198;DHT22;1611;49.394;11.136;2023-04-03T03:48:03;3.60;51.10
3198;DHT22;1611;49.394;11.136;2023-04-03T03:50:32;3.60;51.30
3198;DHT22;1611;49.394;11.136;2023-04-03T03:52:59;3.60;51.70
3198;DHT22;1611;49.394;11.136;2023-04-03T03:55:26;3.60;51.60
3198;DHT22;1611;49.394;11.136;2023-04-03T03:57:53;3.40;51.70
3198;DHT22;1611;49.394;11.136;2023-04-03T04:00:20;3.40;51.90
3198;DHT22;1611;49.394;11.136;2023-04-03T04:02:47;3.40;52.20
3198;DHT22;1611;49.394;11.136;2023-04-03T04:05:14;3.50;52.60
3198;DHT22;1611;49.394;11.136;2023-04-03T04:07:42;3.40;52.80
3198;DHT22;1611;49.394;11.136;2023-04-03T04:10:09;3.40;52.90
3198;DHT22;1611;49.394;11.136;2023-04-03T04:12:36;3.40;53.30
3198;DHT22;1611;49.394;11.136;2023-04-03T04:15:04;3.40;54.20
3198;DHT22;1611;49.394;11.136;2023-04-03T04:17:31;3.50;53.90
3198;DHT22;1611;49.394;11.136;2023-04-03T04:19:57;3.40;53.40
3198;DHT22;1611;49.394;11.136;2023-04-03T04:22:24;3.50;54.20
3198;DHT22;1611;49.394;11.136;2023-04-03T04:24:52;3.40;53.80
3198;DHT22;1611;49.394;11.136;2023-04-03T04:27:19;3.50;54.80
3198;DHT22;1611;49.394;11.136;2023-04-03T04:29:46;3.50;55.10
3198;DHT22;1611;49.394;11.136;2023-04-03T04:32:12;3.40;54.60
3198;DHT22;1611;49.394;11.136;2023-04-03T04:34:39;3.40;55.10
3198;DHT22;1611;49.394;11.136;2023-04-03T04:37:06;3.40;55.00
3198;DHT22;1611;49.394;11.136;2023-04-03T04:39:33;3.40;54.60
3198;DHT22;1611;49.394;11.136;2023-04-03T04:42:01;3.30;55.40
3198;DHT22;1611;49.394;11.136;2023-04-03T04:44:28;3.40;55.70
3198;DHT22;1611;49.394;11.136;2023-04-03T04:46:54;3.30;55.40
3198;DHT22;1611;49.394;11.136;2023-04-03T04:49:21;3.30;55.80
3198;DHT22;1611;49.394;11.136;2023-04-03T04:51:48;3.20;56.00
3198;DHT22;1611;49.394;11.136;2023-04-03T04:54:15;3.10;56.70
3198;DHT22;1611;49.394;11.136;2023-04-03T04:56:41;3.20;56.80
3198;DHT22;1611;49.394;11.136;2023-04-03T04:59:10;3.20;56.80
3198;DHT22;1611;49.394;11.136;2023-04-03T05:01:36;3.20;57.10
3198;DHT22;1611;49.394;11.136;2023-04-03T05:04:03;3.20;56.60
3198;DHT22;1611;49.394;11.136;2023-04-03T05:06:30;3.20;56.90
3198;DHT22;1611;49.394;11.136;2023-04-03T05:08:58;3.30;57.50
3198;DHT22;1611;49.394;11.136;2023-04-03T05:11:25;3.40;57.50
3198;DHT22;1611;49.394;11.136;2023-04-03T05:13:52;3.40;57.60
3198;DHT22;1611;49.394;11.136;2023-04-03T05:16:20;3.40;57.80
3198;DHT22;1611;49.394;11.136;2023-04-03T05:18:47;3.50;57.60
3198;DHT22;1611;49.394;11.136;2023-04-03T05:21:13;3.50;56.80
3198;DHT22;1611;49.394;11.136;2023-04-03T05:23:40;3.50;56.60
3198;DHT22;1611;49.394;11.136;2023-04-03T05:26:07;3.50;56.40
3198;DHT22;1611;49.394;11.136;2023-04-03T05:28:34;3.50;56.20
3198;DHT22;1611;49.394;11.136;2023-04-03T05:31:02;3.50;56.40
3198;DHT22;1611;49.394;11.136;2023-04-03T05:33:30;3.60;56.50
3198;DHT22;1611;49.394;11.136;2023-04-03T05:36:02;3.60;56.40
3198;DHT22;1611;49.394;11.136;2023-04-03T05:38:29;3.60;56.00
3198;DHT22;1611;49.394;11.136;2023-04-03T05:40:55;3.70;56.30
3198;DHT22;1611;49.394;11.136;2023-04-03T05:43:22;3.60;56.30
3198;DHT22;1611;49.394;11.136;2023-04-03T05:45:50;3.80;56.40
3198;DHT22;1611;49.394;11.136;2023-04-03T05:48:16;3.80;55.90
3198;DHT22;1611;49.394;11.136;2023-04-03T05:50:46;3.90;55.60
3198;DHT22;1611;49.394;11.136;2023-04-03T05:53:17;3.90;55.60
3198;DHT22;1611;49.394;11.136;2023-04-03T05:55:45;4.10;55.80
3198;DHT22;1611;49.394;11.136;2023-04-03T05:58:12;4.10;55.60
3198;DHT22;1611;49.394;11.136;2023-04-03T06:00:39;4.10;54.90
3198;DHT22;1611;49.394;11.136;2023-04-03T06:03:06;4.10;55.00
3198;DHT22;1611;49.394;11.136;2023-04-03T06:05:33;4.20;54.20
3198;DHT22;1611;49.394;11.136;2023-04-03T06:08:01;4.20;53.90
3198;DHT22;1611;49.394;11.136;2023-04-03T06:10:28;4.20;54.10
3198;DHT22;1611;49.394;11.136;2023-04-03T06:12:55;4.40;53.30
3198;DHT22;1611;49.394;11.136;2023-04-03T06:15:22;4.50;53.30
3198;DHT22;1611;49.394;11.136;2023-04-03T06:17:48;4.50;53.00
3198;DHT22;1611;49.394;11.136;2023-04-03T06:20:16;4.50;52.70
3198;DHT22;1611;49.394;11.136;2023-04-03T06:22:42;4.50;52.90
3198;DHT22;1611;49.394;11.136;2023-04-03T06:25:11;4.60;52.90
3198;DHT22;1611;49.394;11.136;2023-04-03T06:27:38;4.60;53.10
3198;DHT22;1611;49.394;11.136;2023-04-03T06:30:06;4.70;52.70
3198;DHT22;1611;49.394;11.136;2023-04-03T06:32:33;4.60;52.40
3198;DHT22;1611;49.394;11.136;2023-04-03T06:35:00;4.70;52.50
3198;DHT22;1611;49.394;11.136;2023-04-03T06:37:27;4.80;51.90
3198;DHT22;1611;49.394;11.136;2023-04-03T06:39:54;4.80;51.70
3198;DHT22;1611;49.394;11.136;2023-04-03T06:42:23;4.90;52.10
3198;DHT22;1611;49.394;11.136;2023-04-03T06:44:50;4.90;51.70
3198;DHT22;1611;49.394;11.136;2023-04-03T06:47:17;4.90;51.20
3198;DHT22;1611;49.394;11.136;2023-04-03T06:49:44;5.00;50.90
3198;DHT22;1611;49.394;11.136;2023-04-03T06:52:11;5.00;51.90
3198;DHT22;1611;49.394;11.136;2023-04-03T06:54:39;5.10;50.70
3198;DHT22;1611;49.394;11.136;2023-04-03T06:57:06;5.20;50.80
3198;DHT22;1611;49.394;11.136;2023-04-03T06:59:34;5.20;50.50
3198;DHT22;1611;49.394;11.136;2023-04-03T07:02:02;5.30;50.60
3198;DHT22;1611;49.394;11.136;2023-04-03T07:04:28;5.40;50.00
3198;DHT22;1611;49.394;11.136;2023-04-03T07:06:56;5.50;49.20
3198;DHT22;1611;49.394;11.136;2023-04-03T07:09:22;5.40;49.00
3198;DHT22;1611;49.394;11.136;2023-04-03T07:11:50;5.50;49.20
3198;DHT22;1611;49.394;11.136;2023-04-03T07:14:16;5.60;48.30
3198;DHT22;1611;49.394;11.136;2023-04-03T07:16:44;5.70;47.00
3198;DHT22;1611;49.394;11.136;2023-04-03T07:19:11;5.70;47.20
3198;DHT22;1611;49.394;11.136;2023-04-03T07:21:38;5.70;46.10
3198;DHT22;1611;49.394;11.136;2023-04-03T07:24:07;5.70;47.00
3198;DHT22;1611;49.394;11.136;2023-04-03T07:26:34;5.80;46.00
3198;DHT22;1611;49.394;11.136;2023-04-03T07:29:00;5.90;46.50
3198;DHT22;1611;49.394;11.136;2023-04-03T07:31:27;6.00;45.80
3198;DHT22;1611;49.394;11.136;2023-04-03T07:33:55;6.00;44.90
3198;DHT22;1611;49.394;11.136;2023-04-03T07:36:22;6.10;45.10
3198;DHT22;1611;49.394;11.136;2023-04-03T07:38:49;6.20;44.10
3198;DHT22;1611;49.394;11.136;2023-04-03T07:41:18;6.30;43.40
3198;DHT22;1611;49.394;11.136;2023-04-03T07:43:48;6.30;43.60
3198;DHT22;1611;49.394;11.136;2023-04-03T07:46:16;6.50;42.70
3198;DHT22;1611;49.394;11.136;2023-04-03T07:48:44;6.40;40.80
3198;DHT22;1611;49.394;11.136;2023-04-03T07:51:12;6.40;42.10
3198;DHT22;1611;49.394;11.136;2023-04-03T07:53:39;6.40;42.00
3198;DHT22;1611;49.394;11.136;2023-04-03T07:56:07;6.40;42.10
3198;DHT22;1611;49.394;11.136;2023-04-03T07:58:34;6.40;41.40
3198;DHT22;1611;49.394;11.136;2023-04-03T08:01:01;6.50;42.30
3198;DHT22;1611;49.394;11.136;2023-04-03T08:03:28;6.70;40.60
3198;DHT22;1611;49.394;11.136;2023-04-03T08:06:01;6.70;39.80
3198;DHT22;1611;49.394;11.136;2023-04-03T08:08:30;6.70;38.70
3198;DHT22;1611;49.394;11.136;2023-04-03T08:10:59;6.60;38.60
3198;DHT22;1611;49.394;11.136;2023-04-03T08:13:27;6.80;40.50
3198;DHT22;1611;49.394;11.136;2023-04-03T08:15:55;7.00;38.70
3198;DHT22;1611;49.394;11.136;2023-04-03T08:18:22;7.10;37.90
3198;DHT22;1611;49.394;11.136;2023-04-03T08:20:50;7.10;38.30
3198;DHT22;1611;49.394;11.136;2023-04-03T08:23:17;7.20;38.70
3198;DHT22;1611;49.394;11.136;2023-04-03T08:25:45;7.30;37.90
3198;DHT22;1611;49.394;11.136;2023-04-03T08:28:12;7.40;37.20
3198;DHT22;1611;49.394;11.136;2023-04-03T08:30:39;7.60;36.10
3198;DHT22;1611;49.394;11.136;2023-04-03T08:33:06;7.60;35.60
3198;DHT22;1611;49.394;11.136;2023-04-03T08:35:38;7.50;35.60
3198;DHT22;1611;49.394;11.136;2023-04-03T08:38:05;7.60;36.30
3198;DHT22;1611;49.394;11.136;2023-04-03T08:40:32;7.80;35.20
3198;DHT22;1611;49.394;11.136;2023-04-03T08:43:10;7.70;33.70
3198;DHT22;1611;49.394;11.136;2023-04-03T08:45:48;7.70;34.10
3198;DHT22;1611;49.394;11.136;2023-04-03T08:48:18;7.50;34.90
3198;DHT22;1611;49.394;11.136;2023-04-03T08:50:48;7.50;35.10
3198;DHT22;1611;49.394;11.136;2023-04-03T08:53:19;7.60;34.40
3198;DHT22;1611;49.394;11.136;2023-04-03T08:55:48;7.60;33.30
3198;DHT22;1611;49.394;11.136;2023-04-03T08:58:19;7.90;33.60
3198;DHT22;1611;49.394;11.136;2023-04-03T09:00:50;8.10;31.60
3198;DHT22;1611;49.394;11.136;2023-04-03T09:03:18;8.00;29.50
3198;DHT22;1611;49.394;11.136;2023-04-03T09:05:49;7.90;27.60
3198;DHT22;1611;49.394;11.136;2023-04-03T09:08:23;7.70;28.40
3198;DHT22;1611;49.394;11.136;2023-04-03T09:10:59;7.70;28.60
3198;DHT22;1611;49.394;11.136;2023-04-03T09:13:30;7.80;29.00
3198;DHT22;1611;49.394;11.136;2023-04-03T09:16:01;8.10;27.70
3198;DHT22;1611;49.394;11.136;2023-04-03T09:18:32;8.10;26.60
3198;DHT22;1611;49.394;11.136;2023-04-03T09:21:04;8.50;28.00
3198;DHT22;1611;49.394;11.136;2023-04-03T09:23:40;8.90;27.80
3198;DHT22;1611;49.394;11.136;2023-04-03T09:26:14;9.10;27.10
3198;DHT22;1611;49.394;11.136;2023-04-03T09:28:44;9.20;24.90
3198;DHT22;1611;49.394;11.136;2023-04-03T09:31:19;8.90;23.40
3198;DHT22;1611;49.394;11.136;2023-04-03T09:33:46;8.50;24.60
3198;DHT22;1611;49.394;11.136;2023-04-03T09:36:14;8.30;26.30
3198;DHT22;1611;49.394;11.136;2023-04-03T09:39:05;8.20;25.30
3198;DHT22;1611;49.394;11.136;2023-04-03T09:41:33;8.20;26.00
3198;DHT22;1611;49.394;11.136;2023-04-03T09:44:01;8.10;26.90
3198;DHT22;1611;49.394;11.136;2023-04-03T09:46:32;8.20;26.90
3198;DHT22;1611;49.394;11.136;2023-04-03T09:49:02;7.90;26.70
3198;DHT22;1611;49.394;11.136;2023-04-03T09:51:30;7.70;27.00
3198;DHT22;1611;49.394;11.136;2023-04-03T09:53:58;7.70;28.00
3198;DHT22;1611;49.394;11.136;2023-04-03T09:56:26;7.90;28.60
3198;DHT22;1611;49.394;11.136;2023-04-03T09:59:12;7.90;28.40
3198;DHT22;1611;49.394;11.136;2023-04-03T10:01:43;8.00;27.50
3198;DHT22;1611;49.394;11.136;2023-04-03T10:04:12;8.10;27.30
3198;DHT22;1611;49.394;11.136;2023-04-03T10:06:41;8.40;26.90
3198;DHT22;1611;49.394;11.136;2023-04-03T10:09:20;8.70;25.90
3198;DHT22;1611;49.394;11.136;2023-04-03T10:12:06;8.80;26.00
3198;DHT22;1611;49.394;11.136;2023-04-03T10:14:36;8.50;23.70
3198;DHT22;1611;49.394;11.136;2023-04-03T10:17:14;8.50;24.20
3198;DHT22;1611;49.394;11.136;2023-04-03T10:19:47;8.50;23.80
3198;DHT22;1611;49.394;11.136;2023-04-03T10:22:20;8.70;22.80
3198;DHT22;1611;49.394;11.136;2023-04-03T10:24:52;8.80;23.20
3198;DHT22;1611;49.394;11.136;2023-04-03T10:27:29;8.90;22.50
3198;DHT22;1611;49.394;11.136;2023-04-03T10:30:08;9.10;22.50
3198;DHT22;1611;49.394;11.136;2023-04-03T10:32:48;9.20;20.90
3198;DHT22;1611;49.394;11.136;2023-04-03T10:35:28;8.90;20.00
3198;DHT22;1611;49.394;11.136;2023-04-03T10:38:02;8.80;21.50
3198;DHT22;1611;49.394;11.136;2023-04-03T10:40:35;8.90;22.80
3198;DHT22;1611;49.394;11.136;2023-04-03T10:43:09;8.90;21.80
3198;DHT22;1611;49.394;11.136;2023-04-03T10:45:53;9.00;20.50
3198;DHT22;1611;49.394;11.136;2023-04-03T10:48:33;8.90;21.70
3198;DHT22;1611;49.394;11.136;2023-04-03T10:51:10;9.00;21.60
3198;DHT22;1611;49.394;11.136;2023-04-03T10:53:46;9.00;22.60
3198;DHT22;1611;49.394;11.136;2023-04-03T10:56:19;9.10;22.60
3198;DHT22;1611;49.394;11.136;2023-04-03T10:58:52;9.20;20.70
3198;DHT22;1611;49.394;11.136;2023-04-03T11:01:27;9.30;20.80
3198;DHT22;1611;49.394;11.136;2023-04-03T11:03:58;9.50;19.90
3198;DHT22;1611;49.394;11.136;2023-04-03T11:06:30;10.00;19.50
3198;DHT22;1611;49.394;11.136;2023-04-03T11:09:01;11.10;19.20
3198;DHT22;1611;49.394;11.136;2023-04-03T11:11:34;11.70;17.10
3198;DHT22;1611;49.394;11.136;2023-04-03T11:14:03;13.60;15.40
3198;DHT22;1611;49.394;11.136;2023-04-03T11:16:38;15.30;14.10
3198;DHT22;1611;49.394;11.136;2023-04-03T11:19:13;17.30;8.10
3198;DHT22;1611;49.394;11.136;2023-04-03T11:21:52;18.00;8.00
3198;DHT22;1611;49.394;11.136;2023-04-03T11:24:24;17.00;7.70
3198;DHT22;1611;49.394;11.136;2023-04-03T11:26:53;15.90;10.20
3198;DHT22;1611;49.394;11.136;2023-04-03T11:29:23;15.00;10.50
3198;DHT22;1611;49.394;11.136;2023-04-03T11:32:09;14.30;11.50
3198;DHT22;1611;49.394;11.136;2023-04-03T11:34:40;15.60;10.80
3198;DHT22;1611;49.394;11.136;2023-04-03T11:37:14;16.80;8.00
3198;DHT22;1611;49.394;11.136;2023-04-03T11:39:49;16.30;8.10
3198;DHT22;1611;49.394;11.136;2023-04-03T11:42:24;15.70;8.90
3198;DHT22;1611;49.394;11.136;2023-04-03T11:45:17;16.40;8.30
3198;DHT22;1611;49.394;11.136;2023-04-03T11:47:52;16.80;7.20
3198;DHT22;1611;49.394;11.136;2023-04-03T11:50:39;16.80;7.00
3198;DHT22;1611;49.394;11.136;2023-04-03T11:53:27;15.90;8.40
3198;DHT22;1611;49.394;11.136;2023-04-03T11:55:59;14.80;10.80
3198;DHT22;1611;49.394;11.136;2023-04-03T11:58:28;13.80;11.80
3198;DHT22;1611;49.394;11.136;2023-04-03T12:01:04;13.40;12.30
3198;DHT22;1611;49.394;11.136;2023-04-03T12:04:07;13.40;12.40
3198;DHT22;1611;49.394;11.136;2023-04-03T12:10:02;13.80;11.00
3198;DHT22;1611;49.394;11.136;2023-04-03T12:12:40;15.10;10.10
3198;DHT22;1611;49.394;11.136;2023-04-03T12:18:53;17.00;7.60
3198;DHT22;1611;49.394;11.136;2023-04-03T12:21:24;19.30;6.30
3198;DHT22;1611;49.394;11.136;2023-04-03T12:24:24;21.40;3.70
3198;DHT22;1611;49.394;11.136;2023-04-03T12:27:04;23.30;1.40
3198;DHT22;1611;49.394;11.136;2023-04-03T12:29:35;23.70;1.00
3198;DHT22;1611;49.394;11.136;2023-04-03T12:32:11;22.60;2.20
3198;DHT22;1611;49.394;11.136;2023-04-03T12:38:19;21.70;2.30
3198;DHT22;1611;49.394;11.136;2023-04-03T12:40:54;20.40;2.50
3198;DHT22;1611;49.394;11.136;2023-04-03T12:43:38;18.90;3.20
3198;DHT22;1611;49.394;11.136;2023-04-03T12:46:12;18.00;5.00
3198;DHT22;1611;49.394;11.136;2023-04-03T12:48:47;17.80;5.40
3198;DHT22;1611;49.394;11.136;2023-04-03T12:51:18;17.20;5.90
3198;DHT22;1611;49.394;11.136;2023-04-03T12:53:47;17.70;5.90
3198;DHT22;1611;49.394;11.136;2023-04-03T12:56:23;18.40;5.30
3198;DHT22;1611;49.394;11.136;2023-04-03T12:58:51;18.50;5.10
3198;DHT22;1611;49.394;11.136;2023-04-03T13:01:21;18.20;4.90
3198;DHT22;1611;49.394;11.136;2023-04-03T13:03:51;18.40;4.60
3198;DHT22;1611;49.394;11.136;2023-04-03T13:06:21;18.60;4.10
3198;DHT22;1611;49.394;11.136;2023-04-03T13:08:51;18.70;4.40
3198;DHT22;1611;49.394;11.136;2023-04-03T13:11:19;20.10;3.40
3198;DHT22;1611;49.394;11.136;2023-04-03T13:13:58;21.80;2.00
3198;DHT22;1611;49.394;11.136;2023-04-03T13:16:25;23.20;1.00
3198;DHT22;1611;49.394;11.136;2023-04-03T13:18:53;23.80;1.00
3198;DHT22;1611;49.394;11.136;2023-04-03T13:21:22;23.50;1.00
3198;DHT22;1611;49.394;11.136;2023-04-03T13:23:54;23.50;1.00
3198;DHT22;1611;49.394;11.136;2023-04-03T13:26:24;24.30;1.00
3198;DHT22;1611;49.394;11.136;2023-04-03T13:28:53;24.30;1.00
3198;DHT22;1611;49.394;11.136;2023-04-03T13:31:25;23.80;1.00
3198;DHT22;1611;49.394;11.136;2023-04-03T13:33:57;22.70;1.80
3198;DHT22;1611;49.394;11.136;2023-04-03T13:36:27;20.70;4.20
3198;DHT22;1611;49.394;11.136;2023-04-03T13:39:01;19.00;3.30
3198;DHT22;1611;49.394;11.136;2023-04-03T13:41:31;17.40;5.10
3198;DHT22;1611;49.394;11.136;2023-04-03T13:44:17;16.40;5.90
3198;DHT22;1611;49.394;11.136;2023-04-03T13:46:44;15.60;6.80
3198;DHT22;1611;49.394;11.136;2023-04-03T13:49:20;14.80;8.90
3198;DHT22;1611;49.394;11.136;2023-04-03T13:51:47;15.40;8.20
3198;DHT22;1611;49.394;11.136;2023-04-03T13:54:19;16.30;8.10
3198;DHT22;1611;49.394;11.136;2023-04-03T13:56:53;15.90;8.50
3198;DHT22;1611;49.394;11.136;2023-04-03T13:59:26;15.00;9.40
3198;DHT22;1611;49.394;11.136;2023-04-03T14:01:55;14.20;10.50
3198;DHT22;1611;49.394;11.136;2023-04-03T14:04:35;13.20;11.10
3198;DHT22;1611;49.394;11.136;2023-04-03T14:07:11;12.60;12.20
3198;DHT22;1611;49.394;11.136;2023-04-03T14:09:39;13.20;11.70
3198;DHT22;1611;49.394;11.136;2023-04-03T14:12:08;14.00;10.10
3198;DHT22;1611;49.394;11.136;2023-04-03T14:14:38;13.20;10.60
3198;DHT22;1611;49.394;11.136;2023-04-03T14:17:14;12.70;12.30
3198;DHT22;1611;49.394;11.136;2023-04-03T14:19:41;12.50;12.20
3198;DHT22;1611;49.394;11.136;2023-04-03T14:22:15;12.20;13.70
3198;DHT22;1611;49.394;11.136;2023-04-03T14:24:43;11.80;14.10
3198;DHT22;1611;49.394;11.136;2023-04-03T14:27:17;11.50;15.40
3198;DHT22;1611;49.394;11.136;2023-04-03T14:29:44;11.30;16.00
3198;DHT22;1611;49.394;11.136;2023-04-03T14:32:12;11.10;16.90
3198;DHT22;1611;49.394;11.136;2023-04-03T14:34:41;10.90;16.80
3198;DHT22;1611;49.394;11.136;2023-04-03T14:37:10;10.70;17.00
3198;DHT22;1611;49.394;11.136;2023-04-03T14:39:37;10.40;17.40
3198;DHT22;1611;49.394;11.136;2023-04-03T14:42:06;10.40;17.30
3198;DHT22;1611;49.394;11.136;2023-04-03T14:44:33;11.10;17.00
3198;DHT22;1611;49.394;11.136;2023-04-03T14:47:00;12.10;15.10
3198;DHT22;1611;49.394;11.136;2023-04-03T14:49:28;12.00;14.60
3198;DHT22;1611;49.394;11.136;2023-04-03T14:51:55;11.30;14.90
3198;DHT22;1611;49.394;11.136;2023-04-03T14:54:23;10.90;15.30
3198;DHT22;1611;49.394;11.136;2023-04-03T14:56:53;10.50;16.10
3198;DHT22;1611;49.394;11.136;2023-04-03T14:59:22;10.20;16.40
3198;DHT22;1611;49.394;11.136;2023-04-03T15:01:49;9.90;17.80
3198;DHT22;1611;49.394;11.136;2023-04-03T15:04:17;9.90;17.70
3198;DHT22;1611;49.394;11.136;2023-04-03T15:06:45;9.90;17.90
3198;DHT22;1611;49.394;11.136;2023-04-03T15:09:19;10.10;17.10
3198;DHT22;1611;49.394;11.136;2023-04-03T15:11:47;10.40;17.40
3198;DHT22;1611;49.394;11.136;2023-04-03T15:14:13;11.40;15.20
3198;DHT22;1611;49.394;11.136;2023-04-03T15:16:41;12.30;13.50
3198;DHT22;1611;49.394;11.136;2023-04-03T15:19:09;12.20;13.70
3198;DHT22;1611;49.394;11.136;2023-04-03T15:21:36;11.90;12.50
3198;DHT22;1611;49.394;11.136;2023-04-03T15:24:03;11.10;14.00
3198;DHT22;1611;49.394;11.136;2023-04-03T15:26:30;10.70;14.50
3198;DHT22;1611;49.394;11.136;2023-04-03T15:28:58;10.50;14.70
3198;DHT22;1611;49.394;11.136;2023-04-03T15:31:24;10.30;15.10
3198;DHT22;1611;49.394;11.136;2023-04-03T15:33:52;9.90;16.10
3198;DHT22;1611;49.394;11.136;2023-04-03T15:36:19;10.80;16.20
3198;DHT22;1611;49.394;11.136;2023-04-03T15:38:46;12.20;14.20
3198;DHT22;1611;49.394;11.136;2023-04-03T15:41:13;12.30;13.90
3198;DHT22;1611;49.394;11.136;2023-04-03T15:43:39;11.80;15.10
3198;DHT22;1611;49.394;11.136;2023-04-03T15:46:06;11.50;14.90
3198;DHT22;1611;49.394;11.136;2023-04-03T15:48:33;11.10;16.20
3198;DHT22;1611;49.394;11.136;2023-04-03T15:51:01;10.80;16.60
3198;DHT22;1611;49.394;11.136;2023-04-03T15:53:29;10.30;16.20
3198;DHT22;1611;49.394;11.136;2023-04-03T15:55:55;10.30;17.40
3198;DHT22;1611;49.394;11.136;2023-04-03T15:58:22;10.20;16.90
3198;DHT22;1611;49.394;11.136;2023-04-03T16:00:49;9.80;17.80
3198;DHT22;1611;49.394;11.136;2023-04-03T16:03:18;9.50;18.30
3198;DHT22;1611;49.394;11.136;2023-04-03T16:05:46;9.10;18.40
3198;DHT22;1611;49.394;11.136;2023-04-03T16:08:14;8.80;18.40
3198;DHT22;1611;49.394;11.136;2023-04-03T16:10:43;8.50;19.50
3198;DHT22;1611;49.394;11.136;2023-04-03T16:13:11;8.40;20.00
3198;DHT22;1611;49.394;11.136;2023-04-03T16:15:39;8.30;19.70
3198;DHT22;1611;49.394;11.136;2023-04-03T16:18:06;8.10;20.20
3198;DHT22;1611;49.394;11.136;2023-04-03T16:20:34;8.00;20.20
3198;DHT22;1611;49.394;11.136;2023-04-03T16:23:01;7.90;21.00
3198;DHT22;1611;49.394;11.136;2023-04-03T16:25:29;7.90;21.10
3198;DHT22;1611;49.394;11.136;2023-04-03T16:27:56;7.90;20.80